sensor_id;sensor_type;location;lat;lon;timestamp;pressure;altitude;pressure_sealevel;temperature
19061;BMP280;9663;48.996;8.334;2022-11-20T00:01:24;99896.84;;;10.59
19061;BMP280;9663;48.996;8.334;2022-11-20T00:03:56;99890.88;;;10.64
19061;BMP280;9663;48.996;8.334;2022-11-20T00:06:23;99889.16;;;10.66
19061;BMP280;9663;48.996;8.334;2022-11-20T00:08:49;99888.31;;;10.67
19061;BMP280;9663;48.996;8.334;2022-11-20T00:11:21;99896.75;;;10.67
19061;BMP280;9663;48.996;8.334;2022-11-20T00:13:51;99890.00;;;10.66
19061;BMP280;9663;48.996;8.334;2022-11-20T00:16:20;99898.44;;;10.68
19061;BMP280;9663;48.996;8.334;2022-11-20T00:18:47;99893.38;;;10.68
19061;BMP280;9663;48.996;8.334;2022-11-20T00:23:42;99892.53;;;10.68
19061;BMP280;9663;48.996;8.334;2022-11-20T00:26:12;99897.59;;;10.69
19061;BMP280;9663;48.996;8.334;2022-11-20T00:28:38;99900.06;;;10.72
19061;BMP280;9663;48.996;8.334;2022-11-20T00:31:08;99900.03;;;10.77
19061;BMP280;9663;48.996;8.334;2022-11-20T00:33:34;99905.09;;;10.78
19061;BMP280;9663;48.996;8.334;2022-11-20T00:36:11;99900.06;;;10.75
19061;BMP280;9663;48.996;8.334;2022-11-20T00:38:37;99900.94;;;10.74
19061;BMP280;9663;48.996;8.334;2022-11-20T00:41:07;99898.41;;;10.74
19061;BMP280;9663;48.996;8.334;2022-11-20T00:43:34;99904.28;;;10.76
19061;BMP280;9663;48.996;8.334;2022-11-20T00:46:03;99888.19;;;10.77
19061;BMP280;9663;48.996;8.334;2022-11-20T00:48:30;99889.00;;;10.81
19061;BMP280;9663;48.996;8.334;2022-11-20T00:50:55;99887.28;;;10.84
19061;BMP280;9663;48.996;8.334;2022-11-20T00:53:21;99893.19;;;10.85
19061;BMP280;9663;48.996;8.334;2022-11-20T00:56:06;99891.50;;;10.82
19061;BMP280;9663;48.996;8.334;2022-11-20T00:58:34;99892.41;;;10.80
19061;BMP280;9663;48.996;8.334;2022-11-20T01:01:03;99892.41;;;10.80
19061;BMP280;9663;48.996;8.334;2022-11-20T01:03:35;99883.97;;;10.79
19061;BMP280;9663;48.996;8.334;2022-11-20T01:06:04;99890.69;;;10.80
19061;BMP280;9663;48.996;8.334;2022-11-20T01:08:35;99888.16;;;10.80
19061;BMP280;9663;48.996;8.334;2022-11-20T01:11:04;99884.78;;;10.81
19061;BMP280;9663;48.996;8.334;2022-11-20T01:13:31;99889.81;;;10.84
19061;BMP280;9663;48.996;8.334;2022-11-20T01:16:23;99888.16;;;10.82
19061;BMP280;9663;48.996;8.334;2022-11-20T01:18:54;99886.44;;;10.81
19061;BMP280;9663;48.996;8.334;2022-11-20T01:21:25;99887.31;;;10.81
19061;BMP280;9663;48.996;8.334;2022-11-20T01:23:52;99884.75;;;10.83
19061;BMP280;9663;48.996;8.334;2022-11-20T01:26:28;99894.84;;;10.86
19061;BMP280;9663;48.996;8.334;2022-11-20T01:28:55;99886.38;;;10.88
19061;BMP280;9663;48.996;8.334;2022-11-20T01:31:31;99877.88;;;10.92
19061;BMP280;9663;48.996;8.334;2022-11-20T01:34:05;99881.19;;;10.97
19061;BMP280;9663;48.996;8.334;2022-11-20T01:36:33;99885.38;;;11.04
19061;BMP280;9663;48.996;8.334;2022-11-20T01:39:04;99865.00;;;11.07
19061;BMP280;9663;48.996;8.334;2022-11-20T01:41:32;99868.31;;;11.12
19061;BMP280;9663;48.996;8.334;2022-11-20T01:44:21;99870.84;;;11.12
19061;BMP280;9663;48.996;8.334;2022-11-20T01:47:04;99870.00;;;11.13
19061;BMP280;9663;48.996;8.334;2022-11-20T01:49:50;99867.44;;;11.16
19061;BMP280;9663;48.996;8.334;2022-11-20T01:52:41;99869.97;;;11.16
19061;BMP280;9663;48.996;8.334;2022-11-20T01:55:18;99864.00;;;11.20
19061;BMP280;9663;48.996;8.334;2022-11-20T01:57:48;99867.34;;;11.22
19061;BMP280;9663;48.996;8.334;2022-11-20T02:00:17;99869.88;;;11.23
19061;BMP280;9663;48.996;8.334;2022-11-20T02:02:56;99863.06;;;11.27
19061;BMP280;9663;48.996;8.334;2022-11-20T02:08:02;99865.47;;;11.36
19061;BMP280;9663;48.996;8.334;2022-11-20T02:10:29;99859.44;;;11.43
19061;BMP280;9663;48.996;8.334;2022-11-20T02:12:55;99864.47;;;11.50
19061;BMP280;9663;48.996;8.334;2022-11-20T02:15:40;99865.25;;;11.53
19061;BMP280;9663;48.996;8.334;2022-11-20T02:18:07;99863.47;;;11.61
19061;BMP280;9663;48.996;8.334;2022-11-20T02:20:33;99866.78;;;11.66
19061;BMP280;9663;48.996;8.334;2022-11-20T02:23:05;99861.59;;;11.72
19061;BMP280;9663;48.996;8.334;2022-11-20T02:25:35;99867.44;;;11.77
19061;BMP280;9663;48.996;8.334;2022-11-20T02:28:02;99863.13;;;11.82
19061;BMP280;9663;48.996;8.334;2022-11-20T02:30:28;99859.66;;;11.88
19061;BMP280;9663;48.996;8.334;2022-11-20T02:32:54;99868.88;;;11.93
19061;BMP280;9663;48.996;8.334;2022-11-20T02:37:53;99859.44;;;12.02
19061;BMP280;9663;48.996;8.334;2022-11-20T02:40:20;99865.28;;;12.06
19061;BMP280;9663;48.996;8.334;2022-11-20T02:42:45;99868.63;;;12.09
19061;BMP280;9663;48.996;8.334;2022-11-20T02:45:12;99860.03;;;12.15
19061;BMP280;9663;48.996;8.334;2022-11-20T02:47:37;99853.19;;;12.20
19061;BMP280;9663;48.996;8.334;2022-11-20T02:50:05;99848.06;;;12.23
19061;BMP280;9663;48.996;8.334;2022-11-20T02:52:31;99854.75;;;12.27
19061;BMP280;9663;48.996;8.334;2022-11-20T02:54:57;99839.47;;;12.28
19061;BMP280;9663;48.996;8.334;2022-11-20T02:57:22;99842.84;;;12.30
19061;BMP280;9663;48.996;8.334;2022-11-20T02:59:48;99839.41;;;12.31
19061;BMP280;9663;48.996;8.334;2022-11-20T03:02:14;99843.63;;;12.34
19061;BMP280;9663;48.996;8.334;2022-11-20T03:04:39;99838.53;;;12.35
19061;BMP280;9663;48.996;8.334;2022-11-20T03:07:05;99846.97;;;12.36
19061;BMP280;9663;48.996;8.334;2022-11-20T03:09:31;99846.94;;;12.37
19061;BMP280;9663;48.996;8.334;2022-11-20T03:11:56;99843.44;;;12.42
19061;BMP280;9663;48.996;8.334;2022-11-20T03:14:22;99852.78;;;12.43
19061;BMP280;9663;48.996;8.334;2022-11-20T03:16:48;99845.13;;;12.45
19061;BMP280;9663;48.996;8.334;2022-11-20T03:19:13;99851.88;;;12.46
19061;BMP280;9663;48.996;8.334;2022-11-20T03:21:39;99844.19;;;12.49
19061;BMP280;9663;48.996;8.334;2022-11-20T03:24:07;99847.50;;;12.52
19061;BMP280;9663;48.996;8.334;2022-11-20T03:26:33;99835.63;;;12.53
19061;BMP280;9663;48.996;8.334;2022-11-20T03:29:02;99835.59;;;12.54
19061;BMP280;9663;48.996;8.334;2022-11-20T03:31:35;99840.63;;;12.57
19061;BMP280;9663;48.996;8.334;2022-11-20T03:34:03;99832.13;;;12.58
19061;BMP280;9663;48.996;8.334;2022-11-20T03:36:30;99839.78;;;12.58
19061;BMP280;9663;48.996;8.334;2022-11-20T03:38:56;99832.13;;;12.58
19061;BMP280;9663;48.996;8.334;2022-11-20T03:41:29;99838.03;;;12.60
19061;BMP280;9663;48.996;8.334;2022-11-20T03:43:59;99838.88;;;12.61
19061;BMP280;9663;48.996;8.334;2022-11-20T03:46:27;99834.63;;;12.61
19061;BMP280;9663;48.996;8.334;2022-11-20T03:48:54;99838.03;;;12.60
19061;BMP280;9663;48.996;8.334;2022-11-20T03:51:29;99832.91;;;12.62
19061;BMP280;9663;48.996;8.334;2022-11-20T03:53:59;99831.19;;;12.62
19061;BMP280;9663;48.996;8.334;2022-11-20T03:56:29;99826.13;;;12.62
19061;BMP280;9663;48.996;8.334;2022-11-20T03:58:56;99827.84;;;12.60
19061;BMP280;9663;48.996;8.334;2022-11-20T04:01:27;99827.81;;;12.62
19061;BMP280;9663;48.996;8.334;2022-11-20T04:03:55;99826.13;;;12.62
19061;BMP280;9663;48.996;8.334;2022-11-20T04:06:25;99833.72;;;12.64
19061;BMP280;9663;48.996;8.334;2022-11-20T04:08:54;99834.53;;;12.64
19061;BMP280;9663;48.996;8.334;2022-11-20T04:13:51;99817.63;;;12.63
19061;BMP280;9663;48.996;8.334;2022-11-20T04:16:18;99829.53;;;12.61
19061;BMP280;9663;48.996;8.334;2022-11-20T04:18:45;99832.09;;;12.61
19061;BMP280;9663;48.996;8.334;2022-11-20T04:21:11;99827.84;;;12.60
19061;BMP280;9663;48.996;8.334;2022-11-20T04:23:37;99832.09;;;12.61
19061;BMP280;9663;48.996;8.334;2022-11-20T04:26:07;99832.91;;;12.62
19061;BMP280;9663;48.996;8.334;2022-11-20T04:28:34;99830.34;;;12.63
19061;BMP280;9663;48.996;8.334;2022-11-20T04:31:06;99831.16;;;12.65
19061;BMP280;9663;48.996;8.334;2022-11-20T04:33:33;99826.06;;;12.65
19061;BMP280;9663;48.996;8.334;2022-11-20T04:36:05;99835.28;;;12.69
19061;BMP280;9663;48.996;8.334;2022-11-20T04:38:32;99822.56;;;12.69
19061;BMP280;9663;48.996;8.334;2022-11-20T04:41:04;99823.41;;;12.71
19061;BMP280;9663;48.996;8.334;2022-11-20T04:43:31;99817.44;;;12.72
19061;BMP280;9663;48.996;8.334;2022-11-20T04:45:58;99825.88;;;12.74
19061;BMP280;9663;48.996;8.334;2022-11-20T04:48:27;99825.81;;;12.77
19061;BMP280;9663;48.996;8.334;2022-11-20T04:50:54;99819.09;;;12.75
19061;BMP280;9663;48.996;8.334;2022-11-20T04:53:21;99829.22;;;12.78
19061;BMP280;9663;48.996;8.334;2022-11-20T04:55:47;99819.84;;;12.79
19061;BMP280;9663;48.996;8.334;2022-11-20T04:58:13;99825.75;;;12.80
19061;BMP280;9663;48.996;8.334;2022-11-20T05:00:39;99826.59;;;12.80
19061;BMP280;9663;48.996;8.334;2022-11-20T05:03:05;99819.84;;;12.79
19061;BMP280;9663;48.996;8.334;2022-11-20T05:05:30;99823.22;;;12.80
19061;BMP280;9663;48.996;8.334;2022-11-20T05:07:57;99819.84;;;12.81
19061;BMP280;9663;48.996;8.334;2022-11-20T05:10:24;99823.22;;;12.81
19061;BMP280;9663;48.996;8.334;2022-11-20T05:12:50;99814.75;;;12.81
19061;BMP280;9663;48.996;8.334;2022-11-20T05:15:16;99821.53;;;12.79
19061;BMP280;9663;48.996;8.334;2022-11-20T05:17:48;99818.16;;;12.78
19061;BMP280;9663;48.996;8.334;2022-11-20T05:20:14;99819.03;;;12.78
19061;BMP280;9663;48.996;8.334;2022-11-20T05:22:40;99810.56;;;12.77
19061;BMP280;9663;48.996;8.334;2022-11-20T05:25:06;99812.25;;;12.78
19061;BMP280;9663;48.996;8.334;2022-11-20T05:27:32;99812.28;;;12.75
19061;BMP280;9663;48.996;8.334;2022-11-20T05:29:57;99819.94;;;12.75
19061;BMP280;9663;48.996;8.334;2022-11-20T05:32:23;99811.50;;;12.73
19061;BMP280;9663;48.996;8.334;2022-11-20T05:34:51;99811.47;;;12.75
19061;BMP280;9663;48.996;8.334;2022-11-20T05:37:17;99810.59;;;12.74
19061;BMP280;9663;48.996;8.334;2022-11-20T05:39:43;99810.59;;;12.74
19061;BMP280;9663;48.996;8.334;2022-11-20T05:42:09;99814.88;;;12.72
19061;BMP280;9663;48.996;8.334;2022-11-20T05:44:53;99813.22;;;12.71
19061;BMP280;9663;48.996;8.334;2022-11-20T05:47:18;99808.13;;;12.73
19061;BMP280;9663;48.996;8.334;2022-11-20T05:49:44;99801.34;;;12.72
19061;BMP280;9663;48.996;8.334;2022-11-20T05:52:10;99813.22;;;12.71
19061;BMP280;9663;48.996;8.334;2022-11-20T05:54:35;99814.91;;;12.71
19061;BMP280;9663;48.996;8.334;2022-11-20T05:57:01;99816.63;;;12.70
19061;BMP280;9663;48.996;8.334;2022-11-20T05:59:27;99812.41;;;12.69
19061;BMP280;9663;48.996;8.334;2022-11-20T06:01:52;99810.75;;;12.68
19061;BMP280;9663;48.996;8.334;2022-11-20T06:04:18;99809.91;;;12.68
19061;BMP280;9663;48.996;8.334;2022-11-20T06:06:44;99803.13;;;12.67
19061;BMP280;9663;48.996;8.334;2022-11-20T06:09:09;99800.63;;;12.65
19061;BMP280;9663;48.996;8.334;2022-11-20T06:11:35;99800.63;;;12.65
19061;BMP280;9663;48.996;8.334;2022-11-20T06:14:01;99808.25;;;12.65
19061;BMP280;9663;48.996;8.334;2022-11-20T06:16:26;99814.19;;;12.64
19061;BMP280;9663;48.996;8.334;2022-11-20T06:18:52;99805.72;;;12.65
19061;BMP280;9663;48.996;8.334;2022-11-20T06:21:21;99814.13;;;12.67
19061;BMP280;9663;48.996;8.334;2022-11-20T06:23:47;99812.47;;;12.68
19061;BMP280;9663;48.996;8.334;2022-11-20T06:26:22;99814.13;;;12.69
19061;BMP280;9663;48.996;8.334;2022-11-20T06:28:48;99816.72;;;12.66
19061;BMP280;9663;48.996;8.334;2022-11-20T06:31:17;99822.66;;;12.66
19061;BMP280;9663;48.996;8.334;2022-11-20T06:33:44;99801.44;;;12.66
19061;BMP280;9663;48.996;8.334;2022-11-20T06:36:12;99820.16;;;12.65
19061;BMP280;9663;48.996;8.334;2022-11-20T06:38:39;99818.47;;;12.64
19061;BMP280;9663;48.996;8.334;2022-11-20T06:41:08;99814.28;;;12.61
19061;BMP280;9663;48.996;8.334;2022-11-20T06:43:35;99813.41;;;12.62
19061;BMP280;9663;48.996;8.334;2022-11-20T06:46:01;99820.16;;;12.65
19061;BMP280;9663;48.996;8.334;2022-11-20T06:48:29;99815.06;;;12.65
19061;BMP280;9663;48.996;8.334;2022-11-20T06:50:57;99823.53;;;12.65
19061;BMP280;9663;48.996;8.334;2022-11-20T06:53:24;99814.19;;;12.64
19061;BMP280;9663;48.996;8.334;2022-11-20T06:55:51;99831.09;;;12.68
19061;BMP280;9663;48.996;8.334;2022-11-20T06:58:17;99819.22;;;12.67
19061;BMP280;9663;48.996;8.334;2022-11-20T07:00:44;99822.56;;;12.69
19061;BMP280;9663;48.996;8.334;2022-11-20T07:03:12;99826.81;;;12.70
19061;BMP280;9663;48.996;8.334;2022-11-20T07:05:38;99829.34;;;12.70
19061;BMP280;9663;48.996;8.334;2022-11-20T07:08:04;99837.00;;;12.70
19061;BMP280;9663;48.996;8.334;2022-11-20T07:10:31;99836.13;;;12.71
19061;BMP280;9663;48.996;8.334;2022-11-20T07:12:57;99837.84;;;12.69
19061;BMP280;9663;48.996;8.334;2022-11-20T07:15:24;99847.16;;;12.70
19061;BMP280;9663;48.996;8.334;2022-11-20T07:17:51;99838.72;;;12.68
19061;BMP280;9663;48.996;8.334;2022-11-20T07:20:17;99847.22;;;12.67
19061;BMP280;9663;48.996;8.334;2022-11-20T07:22:43;99843.09;;;12.62
19061;BMP280;9663;48.996;8.334;2022-11-20T07:25:10;99844.81;;;12.61
19061;BMP280;9663;48.996;8.334;2022-11-20T07:27:36;99840.56;;;12.60
19061;BMP280;9663;48.996;8.334;2022-11-20T07:30:03;99849.03;;;12.61
19061;BMP280;9663;48.996;8.334;2022-11-20T07:32:29;99848.19;;;12.62
19061;BMP280;9663;48.996;8.334;2022-11-20T07:34:55;99843.91;;;12.64
19061;BMP280;9663;48.996;8.334;2022-11-20T07:37:21;99844.69;;;12.66
19061;BMP280;9663;48.996;8.334;2022-11-20T07:39:47;99852.31;;;12.67
19061;BMP280;9663;48.996;8.334;2022-11-20T07:42:12;99854.84;;;12.67
19061;BMP280;9663;48.996;8.334;2022-11-20T07:44:38;99860.81;;;12.66
19061;BMP280;9663;48.996;8.334;2022-11-20T07:47:04;99859.94;;;12.67
19061;BMP280;9663;48.996;8.334;2022-11-20T07:49:30;99866.72;;;12.68
19061;BMP280;9663;48.996;8.334;2022-11-20T07:51:56;99874.38;;;12.67
19061;BMP280;9663;48.996;8.334;2022-11-20T07:54:22;99871.84;;;12.67
19061;BMP280;9663;48.996;8.334;2022-11-20T07:56:49;99874.38;;;12.67
19061;BMP280;9663;48.996;8.334;2022-11-20T07:59:15;99862.47;;;12.67
19061;BMP280;9663;48.996;8.334;2022-11-20T08:01:42;99861.66;;;12.67
19061;BMP280;9663;48.996;8.334;2022-11-20T08:04:09;99863.38;;;12.66
19061;BMP280;9663;48.996;8.334;2022-11-20T08:06:35;99879.47;;;12.67
19061;BMP280;9663;48.996;8.334;2022-11-20T08:09:02;99877.78;;;12.66
19061;BMP280;9663;48.996;8.334;2022-11-20T08:11:28;99868.44;;;12.68
19061;BMP280;9663;48.996;8.334;2022-11-20T08:14:12;99881.16;;;12.68
19061;BMP280;9663;48.996;8.334;2022-11-20T08:16:46;99888.72;;;12.69
19061;BMP280;9663;48.996;8.334;2022-11-20T08:19:15;99892.94;;;12.72
19061;BMP280;9663;48.996;8.334;2022-11-20T08:21:41;99895.47;;;12.73
19061;BMP280;9663;48.996;8.334;2022-11-20T08:24:09;99898.81;;;12.75
19061;BMP280;9663;48.996;8.334;2022-11-20T08:26:37;99891.19;;;12.75
19061;BMP280;9663;48.996;8.334;2022-11-20T08:29:05;99897.94;;;12.78
19061;BMP280;9663;48.996;8.334;2022-11-20T08:31:31;99897.88;;;12.79
19061;BMP280;9663;48.996;8.334;2022-11-20T08:33:57;99898.75;;;12.81
19061;BMP280;9663;48.996;8.334;2022-11-20T08:36:24;99895.25;;;12.85
19061;BMP280;9663;48.996;8.334;2022-11-20T08:38:55;99896.06;;;12.87
19061;BMP280;9663;48.996;8.334;2022-11-20T08:41:22;99900.31;;;12.86
19061;BMP280;9663;48.996;8.334;2022-11-20T08:43:59;99906.25;;;12.85
19061;BMP280;9663;48.996;8.334;2022-11-20T08:46:28;99893.50;;;12.87
19061;BMP280;9663;48.996;8.334;2022-11-20T08:48:54;99914.66;;;12.90
19061;BMP280;9663;48.996;8.334;2022-11-20T08:51:20;99907.84;;;12.94
19061;BMP280;9663;48.996;8.334;2022-11-20T08:53:46;99904.38;;;12.96
19061;BMP280;9663;48.996;8.334;2022-11-20T08:56:14;99911.16;;;12.97
19061;BMP280;9663;48.996;8.334;2022-11-20T08:58:40;99912.81;;;12.98
19061;BMP280;9663;48.996;8.334;2022-11-20T09:01:06;99908.56;;;12.99
19061;BMP280;9663;48.996;8.334;2022-11-20T09:03:32;99904.31;;;12.99
19061;BMP280;9663;48.996;8.334;2022-11-20T09:06:05;99913.66;;;12.99
19061;BMP280;9663;48.996;8.334;2022-11-20T09:08:32;99922.13;;;12.99
19061;BMP280;9663;48.996;8.334;2022-11-20T09:10:59;99911.13;;;12.99
19061;BMP280;9663;48.996;8.334;2022-11-20T09:13:29;99921.22;;;13.02
19061;BMP280;9663;48.996;8.334;2022-11-20T09:15:58;99922.06;;;13.04
19061;BMP280;9663;48.996;8.334;2022-11-20T09:18:25;99927.91;;;13.09
19061;BMP280;9663;48.996;8.334;2022-11-20T09:20:51;99926.16;;;13.11
19061;BMP280;9663;48.996;8.334;2022-11-20T09:23:21;99933.66;;;13.17
19061;BMP280;9663;48.996;8.334;2022-11-20T09:25:46;99929.41;;;13.19
19061;BMP280;9663;48.996;8.334;2022-11-20T09:28:12;99937.84;;;13.21
19061;BMP280;9663;48.996;8.334;2022-11-20T09:30:38;99941.19;;;13.23
19061;BMP280;9663;48.996;8.334;2022-11-20T09:33:05;99942.94;;;13.21
19061;BMP280;9663;48.996;8.334;2022-11-20T09:35:32;99938.72;;;13.18
19061;BMP280;9663;48.996;8.334;2022-11-20T09:37:58;99935.44;;;13.13
19061;BMP280;9663;48.996;8.334;2022-11-20T09:40:28;99938.03;;;13.10
19061;BMP280;9663;48.996;8.334;2022-11-20T09:51:38;99955.28;;;12.96
19061;BMP280;9663;48.996;8.334;2022-11-20T09:54:20;99957.00;;;12.96
19061;BMP280;9663;48.996;8.334;2022-11-20T09:56:53;99949.34;;;12.97
19061;BMP280;9663;48.996;8.334;2022-11-20T09:59:38;99957.78;;;12.98
19061;BMP280;9663;48.996;8.334;2022-11-20T10:05:17;99960.34;;;12.98
19061;BMP280;9663;48.996;8.334;2022-11-20T10:07:58;99958.56;;;13.03
19061;BMP280;9663;48.996;8.334;2022-11-20T10:10:50;99953.41;;;13.06
19061;BMP280;9663;48.996;8.334;2022-11-20T10:13:51;99949.03;;;13.12
19061;BMP280;9663;48.996;8.334;2022-11-20T10:28:15;99933.06;;;14.21
19061;BMP280;9663;48.996;8.334;2022-11-20T10:30:51;99928.38;;;14.40
19061;BMP280;9663;48.996;8.334;2022-11-20T10:33:29;99912.75;;;14.52
19061;BMP280;9663;48.996;8.334;2022-11-20T10:38:40;99909.00;;;14.64
19061;BMP280;9663;48.996;8.334;2022-11-20T10:41:16;99909.84;;;14.65
19061;BMP280;9663;48.996;8.334;2022-11-20T10:44:04;99914.19;;;14.61
19061;BMP280;9663;48.996;8.334;2022-11-20T10:46:44;99908.41;;;14.55
19061;BMP280;9663;48.996;8.334;2022-11-20T10:49:18;99898.22;;;14.53
19061;BMP280;9663;48.996;8.334;2022-11-20T10:58:52;99903.78;;;14.36
19061;BMP280;9663;48.996;8.334;2022-11-20T11:01:21;99893.38;;;14.45
19061;BMP280;9663;48.996;8.334;2022-11-20T11:03:53;99882.72;;;14.61
19061;BMP280;9663;48.996;8.334;2022-11-20T11:06:28;99874.34;;;14.88
19061;BMP280;9663;48.996;8.334;2022-11-20T11:09:02;99882.91;;;15.17
19061;BMP280;9663;48.996;8.334;2022-11-20T11:11:32;99869.19;;;15.48
19061;BMP280;9663;48.996;8.334;2022-11-20T11:14:10;99848.28;;;16.14
19061;BMP280;9663;48.996;8.334;2022-11-20T11:16:56;99851.38;;;16.96
19061;BMP280;9663;48.996;8.334;2022-11-20T11:19:23;99842.63;;;17.90
19061;BMP280;9663;48.996;8.334;2022-11-20T11:21:53;99831.78;;;19.03
19061;BMP280;9663;48.996;8.334;2022-11-20T11:24:28;99822.47;;;20.08
19061;BMP280;9663;48.996;8.334;2022-11-20T11:29:22;99812.88;;;21.40
19061;BMP280;9663;48.996;8.334;2022-11-20T11:31:49;99806.38;;;21.79
19061;BMP280;9663;48.996;8.334;2022-11-20T11:34:17;99809.91;;;21.62
19061;BMP280;9663;48.996;8.334;2022-11-20T11:36:56;99806.75;;;20.95
19061;BMP280;9663;48.996;8.334;2022-11-20T11:39:24;99808.16;;;20.19
19061;BMP280;9663;48.996;8.334;2022-11-20T11:41:51;99811.59;;;19.49
19061;BMP280;9663;48.996;8.334;2022-11-20T11:44:26;99808.72;;;18.82
19061;BMP280;9663;48.996;8.334;2022-11-20T11:55:58;99812.28;;;16.68
19061;BMP280;9663;48.996;8.334;2022-11-20T12:04:42;99790.94;;;18.40
19061;BMP280;9663;48.996;8.334;2022-11-20T12:10:20;99787.22;;;20.75
19061;BMP280;9663;48.996;8.334;2022-11-20T12:12:54;99781.16;;;21.68
19061;BMP280;9663;48.996;8.334;2022-11-20T12:15:31;99778.44;;;22.43
19061;BMP280;9663;48.996;8.334;2022-11-20T12:17:58;99771.53;;;22.99
19061;BMP280;9663;48.996;8.334;2022-11-20T12:20:30;99768.88;;;23.27
19061;BMP280;9663;48.996;8.334;2022-11-20T12:23:14;99774.56;;;23.19
19061;BMP280;9663;48.996;8.334;2022-11-20T12:25:43;99780.38;;;22.40
19061;BMP280;9663;48.996;8.334;2022-11-20T12:28:28;99784.09;;;21.32
19061;BMP280;9663;48.996;8.334;2022-11-20T12:36:59;99799.13;;;18.47
19061;BMP280;9663;48.996;8.334;2022-11-20T12:39:42;99793.59;;;17.97
19061;BMP280;9663;48.996;8.334;2022-11-20T12:42:50;99803.00;;;17.55
19061;BMP280;9663;48.996;8.334;2022-11-20T12:46:18;99784.81;;;17.17
19061;BMP280;9663;48.996;8.334;2022-11-20T12:52:34;99799.44;;;16.70
19061;BMP280;9663;48.996;8.334;2022-11-20T12:58:21;99796.34;;;16.38
19061;BMP280;9663;48.996;8.334;2022-11-20T13:03:38;99790.66;;;16.04
19061;BMP280;9663;48.996;8.334;2022-11-20T13:06:17;99792.72;;;15.93
19061;BMP280;9663;48.996;8.334;2022-11-20T13:08:55;99783.53;;;15.88
19061;BMP280;9663;48.996;8.334;2022-11-20T13:11:43;99788.78;;;15.83
19061;BMP280;9663;48.996;8.334;2022-11-20T13:19:55;99763.66;;;15.96
19061;BMP280;9663;48.996;8.334;2022-11-20T13:25:10;99764.16;;;16.07
19061;BMP280;9663;48.996;8.334;2022-11-20T13:27:47;99766.56;;;16.10
19061;BMP280;9663;48.996;8.334;2022-11-20T13:30:18;99762.41;;;16.07
19061;BMP280;9663;48.996;8.334;2022-11-20T13:33:09;99757.50;;;16.01
19061;BMP280;9663;48.996;8.334;2022-11-20T13:38:22;99759.28;;;15.99
19061;BMP280;9663;48.996;8.334;2022-11-20T13:43:39;99746.16;;;16.08
19061;BMP280;9663;48.996;8.334;2022-11-20T13:46:09;99751.19;;;16.11
19061;BMP280;9663;48.996;8.334;2022-11-20T13:48:47;99751.22;;;16.10
19061;BMP280;9663;48.996;8.334;2022-11-20T13:51:44;99754.16;;;15.99
19061;BMP280;9663;48.996;8.334;2022-11-20T14:00:31;99744.03;;;15.71
19061;BMP280;9663;48.996;8.334;2022-11-20T14:05:39;99727.00;;;15.71
19061;BMP280;9663;48.996;8.334;2022-11-20T14:08:14;99733.94;;;15.68
19061;BMP280;9663;48.996;8.334;2022-11-20T14:10:42;99730.69;;;15.63
19061;BMP280;9663;48.996;8.334;2022-11-20T14:13:19;99723.41;;;15.51
19061;BMP280;9663;48.996;8.334;2022-11-20T14:15:45;99723.72;;;15.42
19061;BMP280;9663;48.996;8.334;2022-11-20T14:18:18;99717.19;;;15.34
19061;BMP280;9663;48.996;8.334;2022-11-20T14:20:44;99719.91;;;15.28
19061;BMP280;9663;48.996;8.334;2022-11-20T14:23:11;99715.75;;;15.25
19061;BMP280;9663;48.996;8.334;2022-11-20T14:25:42;99712.34;;;15.25
19061;BMP280;9663;48.996;8.334;2022-11-20T14:28:24;99711.59;;;15.21
19061;BMP280;9663;48.996;8.334;2022-11-20T14:30:50;99716.91;;;15.15
19061;BMP280;9663;48.996;8.334;2022-11-20T14:33:17;99696.66;;;15.08
19061;BMP280;9663;48.996;8.334;2022-11-20T14:35:57;99711.34;;;15.01
19061;BMP280;9663;48.996;8.334;2022-11-20T14:38:31;99706.44;;;14.95
19061;BMP280;9663;48.996;8.334;2022-11-20T14:41:22;99703.31;;;14.86
19061;BMP280;9663;48.996;8.334;2022-11-20T14:43:57;99710.19;;;14.84
19061;BMP280;9663;48.996;8.334;2022-11-20T14:46:24;99707.81;;;14.78
19061;BMP280;9663;48.996;8.334;2022-11-20T14:48:54;99704.50;;;14.75
19061;BMP280;9663;48.996;8.334;2022-11-20T14:51:36;99708.06;;;14.71
19061;BMP280;9663;48.996;8.334;2022-11-20T14:54:19;99696.25;;;14.67
19061;BMP280;9663;48.996;8.334;2022-11-20T14:57:03;99689.59;;;14.61
19061;BMP280;9663;48.996;8.334;2022-11-20T14:59:34;99699.03;;;14.59
19061;BMP280;9663;48.996;8.334;2022-11-20T15:02:09;99698.31;;;14.54
19061;BMP280;9663;48.996;8.334;2022-11-20T15:04:51;99678.94;;;14.48
19061;BMP280;9663;48.996;8.334;2022-11-20T15:07:40;99686.75;;;14.43
19061;BMP280;9663;48.996;8.334;2022-11-20T15:10:26;99680.91;;;14.40
19061;BMP280;9663;48.996;8.334;2022-11-20T15:12:55;99676.72;;;14.37
19061;BMP280;9663;48.996;8.334;2022-11-20T15:18:18;99668.50;;;14.26
19061;BMP280;9663;48.996;8.334;2022-11-20T15:20:45;99666.06;;;14.23
19061;BMP280;9663;48.996;8.334;2022-11-20T15:23:14;99678.81;;;14.23
19061;BMP280;9663;48.996;8.334;2022-11-20T15:25:41;99677.22;;;14.19
19061;BMP280;9663;48.996;8.334;2022-11-20T15:28:32;99672.31;;;14.13
19061;BMP280;9663;48.996;8.334;2022-11-20T15:30:59;99672.34;;;14.12
19061;BMP280;9663;48.996;8.334;2022-11-20T15:33:25;99666.50;;;14.09
19061;BMP280;9663;48.996;8.334;2022-11-20T15:35:51;99675.88;;;14.07
19061;BMP280;9663;48.996;8.334;2022-11-20T15:38:17;99672.53;;;14.05
19061;BMP280;9663;48.996;8.334;2022-11-20T15:40:42;99674.31;;;14.01
19061;BMP280;9663;48.996;8.334;2022-11-20T15:43:08;99676.88;;;14.00
19061;BMP280;9663;48.996;8.334;2022-11-20T15:48:15;99661.66;;;13.97
19061;BMP280;9663;48.996;8.334;2022-11-20T15:50:52;99662.59;;;13.94
19061;BMP280;9663;48.996;8.334;2022-11-20T15:53:19;99666.84;;;13.94
19061;BMP280;9663;48.996;8.334;2022-11-20T15:55:44;99667.78;;;13.91
19061;BMP280;9663;48.996;8.334;2022-11-20T15:58:10;99664.38;;;13.92
19061;BMP280;9663;48.996;8.334;2022-11-20T16:00:36;99658.41;;;13.92
19061;BMP280;9663;48.996;8.334;2022-11-20T16:03:01;99666.94;;;13.91
19061;BMP280;9663;48.996;8.334;2022-11-20T16:05:30;99658.41;;;13.92
19061;BMP280;9663;48.996;8.334;2022-11-20T16:07:56;99651.66;;;13.91
19061;BMP280;9663;48.996;8.334;2022-11-20T16:10:23;99655.94;;;13.89
19061;BMP280;9663;48.996;8.334;2022-11-20T16:12:49;99650.91;;;13.87
19061;BMP280;9663;48.996;8.334;2022-11-20T16:15:33;99649.25;;;13.85
19061;BMP280;9663;48.996;8.334;2022-11-20T16:18:17;99648.44;;;13.84
19061;BMP280;9663;48.996;8.334;2022-11-20T16:20:45;99654.34;;;13.85
19061;BMP280;9663;48.996;8.334;2022-11-20T16:23:12;99645.03;;;13.84
19061;BMP280;9663;48.996;8.334;2022-11-20T16:25:38;99645.88;;;13.84
19061;BMP280;9663;48.996;8.334;2022-11-20T16:28:04;99645.88;;;13.84